createdAt,value
2018-04-02T00:00:51.731Z,5.60
2018-04-02T00:03:19.225Z,5.60
2018-04-02T00:05:46.728Z,5.70
2018-04-02T00:08:14.251Z,5.80
2018-04-02T00:10:42.232Z,5.80
2018-04-02T00:13:09.730Z,5.80
2018-04-02T00:15:37.632Z,5.90
2018-04-02T00:18:05.517Z,5.90
2018-04-02T00:20:33.506Z,5.90
2018-04-02T00:23:01.489Z,5.90
2018-04-02T00:25:29.408Z,5.90
2018-04-02T00:27:57.311Z,5.80
2018-04-02T00:30:24.875Z,5.90
2018-04-02T00:32:52.855Z,5.80
2018-04-02T00:35:20.441Z,5.90
2018-04-02T00:37:47.928Z,5.80
2018-04-02T00:40:15.638Z,5.80
2018-04-02T00:42:43.193Z,5.70
2018-04-02T00:45:10.786Z,5.80
2018-04-02T00:47:38.364Z,5.70
2018-04-02T00:50:05.882Z,5.60
2018-04-02T00:52:33.377Z,5.50
2018-04-02T00:55:00.860Z,5.60
2018-04-02T00:57:29.126Z,5.50
2018-04-02T00:59:56.621Z,5.50
2018-04-02T01:02:24.530Z,5.60
2018-04-02T01:04:52.019Z,5.60
2018-04-02T01:07:19.552Z,5.60
2018-04-02T01:09:47.158Z,5.60
2018-04-02T01:12:15.140Z,5.60
2018-04-02T01:14:42.632Z,5.60
2018-04-02T01:17:10.209Z,5.60
2018-04-02T01:19:37.815Z,5.70
2018-04-02T01:22:05.720Z,5.70
2018-04-02T01:24:33.218Z,5.70
2018-04-02T01:27:00.743Z,5.70
2018-04-02T01:29:28.250Z,5.70
2018-04-02T01:31:56.166Z,5.40
2018-04-02T01:34:23.721Z,5.40
2018-04-02T01:36:51.250Z,5.40
2018-04-02T01:39:18.744Z,5.40
2018-04-02T01:41:46.256Z,5.40
2018-04-02T01:44:13.873Z,5.40
2018-04-02T01:46:41.789Z,5.40
2018-04-02T01:49:09.298Z,5.40
2018-04-02T01:51:36.916Z,5.20
2018-04-02T01:54:04.496Z,5.20
2018-04-02T01:56:32.086Z,5.10
2018-04-02T01:58:59.669Z,5.20
2018-04-02T02:01:27.181Z,5.10
2018-04-02T02:03:55.079Z,4.90
2018-04-02T02:06:22.617Z,5.00
2018-04-02T02:08:50.112Z,4.60
2018-04-02T02:11:17.628Z,4.50
2018-04-02T02:13:45.129Z,4.40
2018-04-02T02:16:12.644Z,4.30
2018-04-02T02:18:40.140Z,4.30
2018-04-02T02:21:07.742Z,4.20
2018-04-02T02:23:35.656Z,4.30
2018-04-02T02:26:03.178Z,4.40
2018-04-02T02:28:30.793Z,4.30
2018-04-02T02:30:58.382Z,4.30
2018-04-02T02:33:25.898Z,4.20
2018-04-02T02:35:53.408Z,4.10
2018-04-02T02:38:20.938Z,4.20
2018-04-02T02:40:48.927Z,4.10
2018-04-02T02:43:16.851Z,4.20
2018-04-02T02:45:44.345Z,4.20
2018-04-02T02:48:11.860Z,4.30
2018-04-02T02:50:39.388Z,4.30
2018-04-02T02:53:07.311Z,4.30
2018-04-02T02:55:34.801Z,4.30
2018-04-02T02:58:02.332Z,4.30
2018-04-02T03:00:30.224Z,4.30
2018-04-02T03:02:57.804Z,4.40
2018-04-02T03:05:25.296Z,4.40
2018-04-02T03:07:53.213Z,4.40
2018-04-02T03:10:20.705Z,4.40
2018-04-02T03:12:48.252Z,4.50
2018-04-02T03:15:15.735Z,4.50
2018-04-02T03:17:43.321Z,4.30
2018-04-02T03:20:10.896Z,4.30
2018-04-02T03:22:38.498Z,4.30
2018-04-02T03:25:06.405Z,4.30
2018-04-02T03:27:34.374Z,4.30
2018-04-02T03:30:01.862Z,4.30
2018-04-02T03:32:29.770Z,4.20
2018-04-02T03:34:57.657Z,4.20
2018-04-02T03:37:25.570Z,4.20
2018-04-02T03:39:53.126Z,4.20
2018-04-02T03:42:21.046Z,4.30
2018-04-02T03:44:48.537Z,4.30
2018-04-02T03:47:16.061Z,4.30
2018-04-02T03:49:43.561Z,4.30
2018-04-02T03:52:11.154Z,4.30
2018-04-02T03:54:38.660Z,4.30
2018-04-02T03:57:06.158Z,4.30
2018-04-02T03:59:33.677Z,4.30
2018-04-02T04:02:01.178Z,4.30
2018-04-02T04:04:28.694Z,4.30
2018-04-02T04:06:56.223Z,4.30
2018-04-02T04:09:23.743Z,4.30
2018-04-02T04:11:51.738Z,4.30
2018-04-02T04:14:19.734Z,4.20
2018-04-02T04:16:47.628Z,4.20
2018-04-02T04:19:15.742Z,4.20
2018-04-02T04:21:43.294Z,4.30
2018-04-02T04:24:10.809Z,4.20
2018-04-02T04:26:38.307Z,4.10
2018-04-02T04:29:05.846Z,4.20
2018-04-02T04:31:33.415Z,4.10
2018-04-02T04:34:00.921Z,4.10
2018-04-02T04:36:28.511Z,4.10
2018-04-02T04:38:56.434Z,4.10
2018-04-02T04:41:23.986Z,4.10
2018-04-02T04:43:51.497Z,4.10
2018-04-02T04:46:19.002Z,4.00
2018-04-02T04:48:46.514Z,4.00
2018-04-02T04:51:14.007Z,4.10
2018-04-02T04:53:41.526Z,4.10
2018-04-02T04:56:09.011Z,4.10
2018-04-02T04:58:36.538Z,4.10
2018-04-02T05:01:04.028Z,3.90
2018-04-02T05:03:31.624Z,4.00
2018-04-02T05:05:59.128Z,3.90
2018-04-02T05:08:27.063Z,3.70
2018-04-02T05:10:54.570Z,3.70
2018-04-02T05:13:22.106Z,3.70
2018-04-02T05:15:49.601Z,3.70
2018-04-02T05:18:17.199Z,3.70
2018-04-02T05:20:44.725Z,3.70
2018-04-02T05:23:12.332Z,3.70
2018-04-02T05:25:40.251Z,3.80
2018-04-02T05:28:08.152Z,3.80
2018-04-02T05:30:35.689Z,3.80
2018-04-02T05:33:03.689Z,3.90
2018-04-02T05:35:31.596Z,3.90
2018-04-02T05:37:59.082Z,3.80
2018-04-02T05:40:26.638Z,3.90
2018-04-02T05:42:54.138Z,4.00
2018-04-02T05:45:22.040Z,4.10
2018-04-02T05:47:49.528Z,4.10
2018-04-02T05:50:17.036Z,4.10
2018-04-02T05:52:44.578Z,4.20
2018-04-02T05:55:12.485Z,4.20
2018-04-02T05:57:39.990Z,4.20
2018-04-02T06:00:07.504Z,4.20
2018-04-02T06:02:35.018Z,4.20
2018-04-02T06:05:02.927Z,4.30
2018-04-02T06:07:30.491Z,4.30
2018-04-02T06:09:58.487Z,4.30
2018-04-02T06:12:26.400Z,4.40
2018-04-02T06:14:54.285Z,4.40
2018-04-02T06:17:22.187Z,4.50
2018-04-02T06:19:49.705Z,4.50
2018-04-02T06:22:17.216Z,4.50
2018-04-02T06:24:44.722Z,4.50
2018-04-02T06:27:12.608Z,4.50
2018-04-02T06:29:40.615Z,4.50
2018-04-02T06:32:08.502Z,4.60
2018-04-02T06:34:36.412Z,4.70
2018-04-02T06:37:03.975Z,4.60
2018-04-02T06:39:31.420Z,4.70
2018-04-02T06:41:58.937Z,4.70
2018-04-02T06:44:26.920Z,4.90
2018-04-02T06:46:54.504Z,4.90
2018-04-02T06:49:21.996Z,4.90
2018-04-02T06:51:49.588Z,5.00
2018-04-02T06:54:17.576Z,5.10
2018-04-02T06:56:45.097Z,5.10
2018-04-02T06:59:12.597Z,5.10
2018-04-02T07:01:40.132Z,5.30
2018-04-02T07:04:07.705Z,5.30
2018-04-02T07:06:35.215Z,5.40
2018-04-02T07:09:02.710Z,5.40
2018-04-02T07:11:30.219Z,5.40
2018-04-02T07:13:57.713Z,5.50
2018-04-02T07:16:25.320Z,5.40
2018-04-02T07:18:52.804Z,5.50
2018-04-02T07:21:20.388Z,5.50
2018-04-02T07:23:47.974Z,5.50
2018-04-02T07:26:15.485Z,5.60
2018-04-02T07:28:43.526Z,5.80
2018-04-02T07:31:11.036Z,5.80
2018-04-02T07:33:38.530Z,5.80
2018-04-02T07:36:06.038Z,5.90
2018-04-02T07:38:33.538Z,6.00
2018-04-02T07:41:01.096Z,6.10
2018-04-02T07:43:28.980Z,6.30
2018-04-02T07:45:56.898Z,6.30
2018-04-02T07:48:24.384Z,6.30
2018-04-02T07:50:51.892Z,6.40
2018-04-02T07:53:19.398Z,6.40
2018-04-02T07:55:46.999Z,6.50
2018-04-02T07:58:14.879Z,6.50
2018-04-02T08:00:42.401Z,6.50
2018-04-02T08:03:09.908Z,6.50
2018-04-02T08:05:37.433Z,6.60
2018-04-02T08:08:04.938Z,6.60
2018-04-02T08:10:32.830Z,6.60
2018-04-02T08:13:00.732Z,6.70
2018-04-02T08:15:28.610Z,6.80
2018-04-02T08:17:56.612Z,6.80
2018-04-02T08:20:24.500Z,6.90
2018-04-02T08:22:52.418Z,6.90
2018-04-02T08:25:20.004Z,6.90
2018-04-02T08:27:47.513Z,7.00
2018-04-02T08:30:15.011Z,7.10
2018-04-02T08:32:42.655Z,7.20
2018-04-02T08:35:10.534Z,7.50
2018-04-02T08:37:38.040Z,7.40
2018-04-02T08:40:05.526Z,7.40
2018-04-02T08:42:33.067Z,7.40
2018-04-02T08:45:01.062Z,7.50
2018-04-02T08:47:28.960Z,7.50
2018-04-02T08:49:56.936Z,7.60
2018-04-02T08:52:24.519Z,7.60
2018-04-02T08:54:52.103Z,7.80
2018-04-02T08:57:19.608Z,7.90
2018-04-02T08:59:47.496Z,8.30
2018-04-02T09:02:15.489Z,8.20
2018-04-02T09:04:43.380Z,8.30
2018-04-02T09:07:11.343Z,8.40
2018-04-02T09:09:38.792Z,8.40
2018-04-02T09:12:06.314Z,8.40
2018-04-02T09:14:33.819Z,8.40
2018-04-02T09:17:01.730Z,8.60
2018-04-02T09:19:29.616Z,8.60
2018-04-02T09:21:57.522Z,8.60
2018-04-02T09:24:25.013Z,8.50
2018-04-02T09:26:52.530Z,8.60
2018-04-02T09:29:20.025Z,8.60
2018-04-02T09:31:47.521Z,8.70
2018-04-02T09:34:15.043Z,8.70
2018-04-02T09:36:42.598Z,8.70
2018-04-02T09:39:10.508Z,9.00
2018-04-02T09:41:38.393Z,9.00
2018-04-02T09:44:06.310Z,9.30
2018-04-02T09:46:33.877Z,9.30
2018-04-02T09:49:01.436Z,9.60
2018-04-02T09:51:28.933Z,9.90
2018-04-02T09:53:56.844Z,10.10
2018-04-02T09:56:24.392Z,10.10
2018-04-02T09:58:51.988Z,10.30
2018-04-02T10:01:19.895Z,11.00
2018-04-02T10:03:53.063Z,11.00
2018-04-02T10:06:20.579Z,11.00
2018-04-02T10:08:48.496Z,11.30
2018-04-02T10:11:16.052Z,11.20
2018-04-02T10:13:43.577Z,11.10
2018-04-02T10:16:11.100Z,10.90
2018-04-02T10:18:38.623Z,10.80
2018-04-02T10:21:08.773Z,10.90
2018-04-02T10:23:36.288Z,11.10
2018-04-02T10:26:03.795Z,10.90
2018-04-02T10:28:31.406Z,10.90
2018-04-02T10:30:59.396Z,10.90
2018-04-02T10:33:26.928Z,10.90
2018-04-02T10:35:54.464Z,10.70
2018-04-02T10:38:22.460Z,10.60
2018-04-02T10:40:50.456Z,10.60
2018-04-02T10:43:18.013Z,10.60
2018-04-02T10:45:45.508Z,10.60
2018-04-02T10:48:13.037Z,10.70
2018-04-02T10:50:40.545Z,10.70
2018-04-02T10:53:08.066Z,10.70
2018-04-02T10:55:35.656Z,10.80
2018-04-02T10:58:03.199Z,10.80
2018-04-02T11:00:30.693Z,10.90
2018-04-02T11:02:58.185Z,11.00
2018-04-02T11:05:25.807Z,11.20
2018-04-02T11:07:53.784Z,11.40
2018-04-02T11:10:21.292Z,11.30
2018-04-02T11:12:48.792Z,11.30
2018-04-02T11:15:16.340Z,11.50
2018-04-02T11:17:43.926Z,11.60
2018-04-02T11:20:11.856Z,11.70
2018-04-02T11:22:39.349Z,11.70
2018-04-02T11:25:06.856Z,11.80
2018-04-02T11:27:34.375Z,11.70
2018-04-02T11:30:02.470Z,11.90
2018-04-02T11:32:30.367Z,11.90
2018-04-02T11:34:58.272Z,11.70
2018-04-02T11:37:25.830Z,11.70
2018-04-02T11:39:53.740Z,11.60
2018-04-02T11:42:21.625Z,11.40
2018-04-02T11:44:49.525Z,11.40
2018-04-02T11:47:17.042Z,11.40
2018-04-02T11:49:44.553Z,11.20
2018-04-02T11:52:12.062Z,11.10
2018-04-02T11:54:39.969Z,11.10
2018-04-02T11:57:07.923Z,11.10
2018-04-02T11:59:35.434Z,11.10
2018-04-02T12:02:03.335Z,11.00
2018-04-02T12:04:30.906Z,11.00
2018-04-02T12:06:58.907Z,11.20
2018-04-02T12:09:26.826Z,11.30
2018-04-02T12:11:54.436Z,11.30
2018-04-02T12:14:21.950Z,11.40
2018-04-02T12:16:49.436Z,11.40
2018-04-02T12:19:17.018Z,11.40
2018-04-02T12:21:44.511Z,11.40
2018-04-02T12:24:12.509Z,11.30
2018-04-02T12:26:40.000Z,11.30
2018-04-02T12:29:08.138Z,11.40
2018-04-02T12:31:35.655Z,11.40
2018-04-02T12:34:03.156Z,11.40
2018-04-02T12:36:30.667Z,11.40
2018-04-02T12:38:58.225Z,11.60
2018-04-02T12:41:25.800Z,11.60
2018-04-02T12:43:53.311Z,11.60
2018-04-02T12:46:20.912Z,11.60
2018-04-02T12:48:48.481Z,11.60
2018-04-02T12:51:16.384Z,11.60
2018-04-02T12:53:43.868Z,11.70
2018-04-02T12:56:11.379Z,11.70
2018-04-02T12:58:39.029Z,11.80
2018-04-02T13:01:06.577Z,11.90
2018-04-02T13:03:34.074Z,11.90
2018-04-02T13:06:01.671Z,12.00
2018-04-02T13:08:29.565Z,12.00
2018-04-02T13:10:57.545Z,11.90
2018-04-02T13:13:25.432Z,11.80
2018-04-02T13:15:52.947Z,11.80
2018-04-02T13:18:20.453Z,11.80
2018-04-02T13:20:47.994Z,11.80
2018-04-02T13:23:15.886Z,12.10
2018-04-02T13:25:43.888Z,12.10
2018-04-02T13:28:11.402Z,12.10
2018-04-02T13:30:38.923Z,12.30
2018-04-02T13:33:06.417Z,12.50
2018-04-02T13:35:34.333Z,12.60
2018-04-02T13:38:01.839Z,12.60
2018-04-02T13:40:29.367Z,12.60
2018-04-02T13:42:57.252Z,12.70
2018-04-02T13:45:25.342Z,12.60
2018-04-02T13:47:52.846Z,12.60
2018-04-02T13:50:20.749Z,12.80
2018-04-02T13:52:48.235Z,12.80
2018-04-02T13:55:15.738Z,12.90
2018-04-02T13:57:43.260Z,12.90
2018-04-02T14:00:10.763Z,12.90
2018-04-02T14:02:38.318Z,13.00
2018-04-02T14:05:05.818Z,12.80
2018-04-02T14:07:33.914Z,12.90
2018-04-02T14:10:01.950Z,13.10
2018-04-02T14:12:29.494Z,13.10
2018-04-02T14:14:57.434Z,13.20
2018-04-02T14:17:25.005Z,13.20
2018-04-02T14:19:52.498Z,13.40
2018-04-02T14:22:20.024Z,13.40
2018-04-02T14:24:47.604Z,13.40
2018-04-02T14:27:15.108Z,13.40
2018-04-02T14:29:43.472Z,13.30
2018-04-02T14:32:10.977Z,13.30
2018-04-02T14:34:38.537Z,13.30
2018-04-02T14:37:06.174Z,13.30
2018-04-02T14:39:33.739Z,13.30
2018-04-02T14:42:01.739Z,13.30
2018-04-02T14:44:29.640Z,13.30
2018-04-02T14:46:57.154Z,13.30
2018-04-02T14:49:24.773Z,13.30
2018-04-02T14:51:52.285Z,13.30
2018-04-02T14:54:19.772Z,13.40
2018-04-02T14:56:47.293Z,13.40
2018-04-02T14:59:14.828Z,13.30
2018-04-02T15:01:42.759Z,13.30
2018-04-02T15:04:10.274Z,13.40
2018-04-02T15:06:37.889Z,13.40
2018-04-02T15:09:06.192Z,13.40
2018-04-02T15:11:33.718Z,13.30
2018-04-02T15:14:01.247Z,13.30
2018-04-02T15:16:29.235Z,13.20
2018-04-02T15:18:57.141Z,13.20
2018-04-02T15:21:25.066Z,13.10
2018-04-02T15:26:52.501Z,13.10
2018-04-02T15:29:20.032Z,13.10
2018-04-02T15:31:47.582Z,13.10
2018-04-02T15:34:15.079Z,13.10
2018-04-02T15:36:42.583Z,13.20
2018-04-02T15:39:10.290Z,13.20
2018-04-02T15:41:38.252Z,13.20
2018-04-02T15:44:05.752Z,13.20
2018-04-02T15:46:33.240Z,13.10
2018-04-02T15:49:00.739Z,13.10
2018-04-02T15:51:28.764Z,13.00
2018-04-02T15:53:56.720Z,13.10
2018-04-02T15:56:24.203Z,13.00
2018-04-02T15:58:51.711Z,13.00
2018-04-02T16:01:19.349Z,12.90
2018-04-02T16:03:47.097Z,12.80
2018-04-02T16:06:14.628Z,12.70
2018-04-02T16:08:42.188Z,12.80
2018-04-02T16:11:09.687Z,12.80
2018-04-02T16:13:37.188Z,12.80
2018-04-02T16:16:04.668Z,12.80
2018-04-02T16:18:32.187Z,12.80
2018-04-02T16:20:59.932Z,12.70
2018-04-02T16:23:33.381Z,12.60
2018-04-02T16:26:00.993Z,12.60
2018-04-02T16:28:28.504Z,12.50
2018-04-02T16:30:55.987Z,12.50
2018-04-02T16:33:23.483Z,12.50
2018-04-02T16:35:51.148Z,12.50
2018-04-02T16:38:18.839Z,12.40
2018-04-02T16:40:46.328Z,12.50
2018-04-02T16:43:13.835Z,12.50
2018-04-02T16:45:41.339Z,12.50
2018-04-02T16:48:08.847Z,12.40
2018-04-02T16:50:36.739Z,12.40
2018-04-02T16:53:04.703Z,12.40
2018-04-02T16:55:32.180Z,12.40
2018-04-02T16:57:59.696Z,12.40
2018-04-02T17:00:27.264Z,12.40
2018-04-02T17:02:54.763Z,12.40
2018-04-02T17:05:22.244Z,12.50
2018-04-02T17:07:49.731Z,12.40
2018-04-02T17:10:17.242Z,12.30
2018-04-02T17:12:45.118Z,12.40
2018-04-02T17:15:12.615Z,12.40
2018-04-02T17:17:40.583Z,12.40
2018-04-02T17:20:08.253Z,12.50
2018-04-02T17:22:35.746Z,12.40
2018-04-02T17:25:03.239Z,12.50
2018-04-02T17:27:30.715Z,12.50
2018-04-02T17:29:58.245Z,12.50
2018-04-02T17:32:25.783Z,12.40
2018-04-02T17:34:53.293Z,12.40
2018-04-02T17:37:21.183Z,12.30
2018-04-02T17:39:48.720Z,12.30
2018-04-02T17:42:16.207Z,12.30
2018-04-02T17:44:43.703Z,12.70
2018-04-02T17:47:11.183Z,12.70
2018-04-02T17:49:38.757Z,12.60
2018-04-02T17:52:06.284Z,12.50
2018-04-02T17:54:33.790Z,12.40
2018-04-02T17:57:01.280Z,12.30
2018-04-02T17:59:28.858Z,12.20
2018-04-02T18:01:56.824Z,11.90
2018-04-02T18:04:24.344Z,12.00
2018-04-02T18:06:52.513Z,11.90
2018-04-02T18:09:19.827Z,11.70
2018-04-02T18:11:47.311Z,11.80
2018-04-02T18:14:15.207Z,11.70
2018-04-02T18:16:42.755Z,11.70
2018-04-02T18:19:10.251Z,11.60
2018-04-02T18:21:38.149Z,11.50
2018-04-02T18:24:06.126Z,11.50
2018-04-02T18:26:33.626Z,11.50
2018-04-02T18:29:01.588Z,11.30
2018-04-02T18:31:29.597Z,11.30
2018-04-02T18:33:57.111Z,11.30
2018-04-02T18:36:24.990Z,11.20
2018-04-02T18:38:52.476Z,11.20
2018-04-02T18:41:19.977Z,11.10
2018-04-02T18:43:47.995Z,11.00
2018-04-02T18:46:15.506Z,11.00
2018-04-02T18:48:43.034Z,11.00
2018-04-02T18:51:10.543Z,10.90
2018-04-02T18:53:38.530Z,10.70
2018-04-02T18:56:06.119Z,10.80
2018-04-02T18:58:33.711Z,10.70
2018-04-02T19:01:01.214Z,10.60
2018-04-02T19:03:29.396Z,10.50
2018-04-02T19:05:56.922Z,10.60
2018-04-02T19:08:24.482Z,10.50
2018-04-02T19:10:52.000Z,10.40
2018-04-02T19:13:19.526Z,10.40
2018-04-02T19:15:47.220Z,10.30
2018-04-02T19:18:14.771Z,10.20
2018-04-02T19:20:42.751Z,10.10
2018-04-02T19:23:10.231Z,10.10
2018-04-02T19:25:37.770Z,10.00
2018-04-02T19:28:05.247Z,9.90
2018-04-02T19:30:33.214Z,9.90
2018-04-02T19:33:00.691Z,9.90
2018-04-02T19:35:28.211Z,9.80
2018-04-02T19:37:56.172Z,9.70
2018-04-02T19:40:23.675Z,9.70
2018-04-02T19:42:51.652Z,9.70
2018-04-02T19:45:19.144Z,9.70
2018-04-02T19:47:46.650Z,9.70
2018-04-02T19:50:14.209Z,9.70
2018-04-02T19:52:41.689Z,9.70
2018-04-02T19:55:09.280Z,9.70
2018-04-02T19:57:36.881Z,9.70
2018-04-02T20:00:04.446Z,9.70
2018-04-02T20:02:31.924Z,9.70
2018-04-02T20:04:59.426Z,9.70
2018-04-02T20:07:27.006Z,9.70
2018-04-02T20:09:54.529Z,9.80
2018-04-02T20:12:22.027Z,9.80
2018-04-02T20:14:49.563Z,9.80
2018-04-02T20:17:17.055Z,9.90
2018-04-02T20:19:44.530Z,9.80
2018-04-02T20:22:12.027Z,9.80
2018-04-02T20:24:40.012Z,9.80
2018-04-02T20:27:07.510Z,9.80
2018-04-02T20:29:34.991Z,9.80
2018-04-02T20:32:02.875Z,9.70
2018-04-02T20:34:30.351Z,9.70
2018-04-02T20:36:57.839Z,9.60
2018-04-02T20:39:25.450Z,9.60
2018-04-02T20:41:53.326Z,9.60
2018-04-02T20:44:20.895Z,9.60
2018-04-02T20:46:48.493Z,9.50
2018-04-02T20:49:15.967Z,9.60
2018-04-02T20:51:43.472Z,9.40
2018-04-02T20:54:11.388Z,9.40
2018-04-02T20:56:38.923Z,9.40
2018-04-02T20:59:06.407Z,9.30
2018-04-02T21:01:33.901Z,9.30
2018-04-02T21:04:01.474Z,9.30
2018-04-02T21:06:29.109Z,9.30
2018-04-02T21:08:56.867Z,9.40
2018-04-02T21:11:24.847Z,9.30
2018-04-02T21:13:52.335Z,9.30
2018-04-02T21:16:19.912Z,9.20
2018-04-02T21:18:47.395Z,9.20
2018-04-02T21:21:14.892Z,9.10
2018-04-02T21:23:42.464Z,9.20
2018-04-02T21:26:09.958Z,9.20
2018-04-02T21:28:37.439Z,9.20
2018-04-02T21:31:05.050Z,9.20
2018-04-02T21:33:32.976Z,9.20
2018-04-02T21:36:00.918Z,9.20
2018-04-02T21:38:28.412Z,9.20
2018-04-02T21:40:56.335Z,9.10
2018-04-02T21:43:24.191Z,9.10
2018-04-02T21:45:52.164Z,9.10
2018-04-02T21:48:20.071Z,9.10
2018-04-02T21:50:47.546Z,9.20
2018-04-02T21:53:15.039Z,9.20
2018-04-02T21:55:42.611Z,9.20
2018-04-02T21:58:10.133Z,9.20
2018-04-02T22:00:37.672Z,9.10
2018-04-02T22:03:05.163Z,9.10
2018-04-02T22:05:32.742Z,9.10
2018-04-02T22:08:09.232Z,9.10
2018-04-02T22:10:36.708Z,9.20
2018-04-02T22:13:04.247Z,9.20
2018-04-02T22:15:31.790Z,9.10
2018-04-02T22:17:59.278Z,9.20
2018-04-02T22:20:26.756Z,9.10
2018-04-02T22:22:54.251Z,9.10
2018-04-02T22:25:22.004Z,9.20
2018-04-02T22:27:49.511Z,9.10
2018-04-02T22:30:17.011Z,9.20
2018-04-02T22:32:44.503Z,9.10
2018-04-02T22:35:12.471Z,9.20
2018-04-02T22:37:39.959Z,9.20
2018-04-02T22:40:07.432Z,9.20
2018-04-02T22:42:34.923Z,9.20
2018-04-02T22:45:02.400Z,9.10
2018-04-02T22:47:29.962Z,9.10
2018-04-02T22:49:57.463Z,9.10
2018-04-02T22:52:24.970Z,9.00
2018-04-02T22:54:52.843Z,9.00
2018-04-02T22:57:20.356Z,9.10
2018-04-02T22:59:48.231Z,9.00
2018-04-02T23:02:15.711Z,9.00
2018-04-02T23:04:43.208Z,9.00
2018-04-02T23:07:11.079Z,9.00
2018-04-02T23:09:38.663Z,9.00
2018-04-02T23:12:06.143Z,8.90
2018-04-02T23:14:33.635Z,8.80
2018-04-02T23:17:01.203Z,8.80
2018-04-02T23:19:28.699Z,8.80
2018-04-02T23:21:56.174Z,8.80
2018-04-02T23:24:23.805Z,8.80
2018-04-02T23:26:51.251Z,8.80
2018-04-02T23:29:18.747Z,8.70
2018-04-02T23:31:46.315Z,8.70
2018-04-02T23:34:13.903Z,8.70
2018-04-02T23:36:41.483Z,8.70
2018-04-02T23:39:08.979Z,8.70
2018-04-02T23:41:36.462Z,8.70
2018-04-02T23:44:03.951Z,8.70
2018-04-02T23:46:31.429Z,8.70
2018-04-02T23:48:58.924Z,8.60
2018-04-02T23:51:26.896Z,8.60
2018-04-02T23:53:54.387Z,8.60
2018-04-02T23:56:21.960Z,8.60
2018-04-02T23:58:49.547Z,8.70
